Time;durP1;ratioP1;P1;durP2;ratioP2;P2;SDS_P1;SDS_P2;PMS_P1;PMS_P2;Temp;Humidity;BMP_temperature;BMP_pressure;BME280_temperature;BME280_humidity;BME280_pressure;Samples;Min_cycle;Max_cycle;Signal;HPM_P1;HPM_P2
2021/09/13 00:00:10;;;;;;;19.25;17.28;;;;;;;17.28;57.55;100690.96;460953;114;930551;-78
2021/09/13 00:01:17;;;;;;;19.78;17.77;;;;;;;17.25;57.59;100688.73;445055;118;930521;-78
2021/09/13 00:02:28;;;;;;;22.56;17.77;;;;;;;17.20;57.62;100691.39;454326;114;922601;-78
2021/09/13 00:03:29;;;;;;;19.32;16.89;;;;;;;17.15;57.73;100691.33;466049;113;922617;-78
2021/09/13 00:04:33;;;;;;;20.48;16.45;;;;;;;17.10;57.86;100686.59;461288;114;923215;-78
2021/09/13 00:05:36;;;;;;;19.52;16.13;;;;;;;17.07;57.96;100689.03;471573;110;930682;-78
2021/09/13 00:06:40;;;;;;;19.95;15.44;;;;;;;17.03;57.97;100690.64;480047;110;922648;-78
2021/09/13 00:07:44;;;;;;;15.86;14.07;;;;;;;16.98;57.93;100691.37;481214;110;923055;-78
2021/09/13 00:08:47;;;;;;;16.73;14.94;;;;;;;16.94;57.96;100692.98;479761;108;922903;-79
2021/09/13 00:09:51;;;;;;;15.45;13.70;;;;;;;16.92;58.04;100697.09;481135;108;930490;-78
2021/09/13 00:10:56;;;;;;;16.27;14.71;;;;;;;16.89;58.21;100695.66;480326;110;922963;-78
2021/09/13 00:12:01;;;;;;;16.23;14.60;;;;;;;16.90;58.35;100693.75;480360;108;930086;-78
2021/09/13 00:13:05;;;;;;;16.11;13.78;;;;;;;16.90;58.45;100697.34;480338;110;922598;-78
2021/09/13 00:14:10;;;;;;;18.30;13.70;;;;;;;16.89;58.44;100687.41;480256;110;922959;-78
2021/09/13 00:15:13;;;;;;;14.85;13.35;;;;;;;16.88;58.46;100696.75;481099;110;930559;-78
2021/09/13 00:16:19;;;;;;;14.96;12.70;;;;;;;16.85;58.42;100690.92;480769;110;922409;-78
2021/09/13 00:17:25;;;;;;;17.88;13.85;;;;;;;16.82;58.41;100686.73;480527;108;922987;-78
2021/09/13 00:18:30;;;;;;;14.05;12.72;;;;;;;16.79;58.46;100689.18;479740;108;922491;-78
2021/09/13 00:19:33;;;;;;;13.78;12.45;;;;;;;16.76;58.46;100687.75;480170;110;930391;-78
2021/09/13 00:20:39;;;;;;;14.94;12.57;;;;;;;16.73;58.56;100688.27;480298;110;922780;-79
2021/09/13 00:21:42;;;;;;;21.01;13.49;;;;;;;16.73;58.66;100687.44;480635;108;922409;-79
2021/09/13 00:22:45;;;;;;;14.60;13.17;;;;;;;16.72;58.83;100688.52;479608;110;923279;-79
2021/09/13 00:23:49;;;;;;;14.73;13.03;;;;;;;16.74;58.96;100686.35;479730;110;922589;-76
2021/09/13 00:24:52;;;;;;;15.23;13.68;;;;;;;16.76;59.10;100686.95;479118;108;930233;-78
2021/09/13 00:25:56;;;;;;;16.14;13.08;;;;;;;16.80;59.18;100688.09;481284;110;922613;-78
2021/09/13 00:27:00;;;;;;;14.61;13.15;;;;;;;16.84;59.24;100683.74;480774;108;929964;-78
2021/09/13 00:28:05;;;;;;;14.99;12.74;;;;;;;16.87;59.29;100677.75;481542;108;929869;-78
2021/09/13 00:29:09;;;;;;;13.55;11.71;;;;;;;16.91;59.38;100681.65;480675;110;930067;-78
2021/09/13 00:30:14;;;;;;;12.63;11.55;;;;;;;16.92;59.44;100681.41;480330;108;930300;-78
2021/09/13 00:31:18;;;;;;;14.01;11.47;;;;;;;16.91;59.47;100684.41;480266;110;922434;-77
2021/09/13 00:32:21;;;;;;;13.28;10.40;;;;;;;16.89;59.54;100681.89;480451;108;923151;-77
2021/09/13 00:33:26;;;;;;;12.66;10.88;;;;;;;16.88;59.54;100682.14;480093;110;922495;-78
2021/09/13 00:34:31;;;;;;;11.83;10.59;;;;;;;16.84;59.55;100680.98;480930;110;930263;-78
2021/09/13 00:35:35;;;;;;;12.43;9.93;;;;;;;16.81;59.57;100685.09;484293;108;922603;-78
2021/09/13 00:36:40;;;;;;;11.00;10.01;;;;;;;16.77;59.64;100683.91;484025;107;922567;-78
2021/09/13 00:37:44;;;;;;;13.26;10.42;;;;;;;16.75;59.72;100685.27;484417;107;922462;-77
2021/09/13 00:38:48;;;;;;;11.29;10.01;;;;;;;16.71;59.80;100684.09;484443;107;930261;-78
2021/09/13 00:39:52;;;;;;;10.57;9.54;;;;;;;16.68;59.88;100686.28;483956;109;922952;-77
2021/09/13 00:40:56;;;;;;;12.19;9.08;;;;;;;16.66;59.95;100684.84;483667;109;922516;-78
2021/09/13 00:42:00;;;;;;;10.04;9.08;;;;;;;16.64;59.99;100678.78;484182;107;922737;-78
2021/09/13 00:43:04;;;;;;;13.06;8.79;;;;;;;16.61;60.07;100688.36;484067;109;922742;-78
2021/09/13 00:44:08;;;;;;;11.24;8.59;;;;;;;16.60;60.14;100689.45;483340;107;930521;-77
2021/09/13 00:45:12;;;;;;;10.08;9.16;;;;;;;16.61;60.28;100695.78;484263;107;923082;-77
2021/09/13 00:46:17;;;;;;;10.24;9.16;;;;;;;16.61;60.40;100695.78;483853;109;926121;-77
2021/09/13 00:47:21;;;;;;;9.69;8.75;;;;;;;16.64;60.51;100696.14;484489;108;923288;-78
2021/09/13 00:48:25;;;;;;;10.05;8.97;;;;;;;16.67;60.56;100692.87;484144;107;922488;-78
2021/09/13 00:49:29;;;;;;;10.00;9.21;;;;;;;16.72;60.64;100691.27;484292;108;923101;-78
2021/09/13 00:50:33;;;;;;;10.39;8.70;;;;;;;16.77;60.59;100692.17;483425;107;930391;-78
2021/09/13 00:51:37;;;;;;;11.46;9.61;;;;;;;16.81;60.53;100689.77;483716;108;922508;-78
2021/09/13 00:52:43;;;;;;;11.06;9.38;;;;;;;16.85;60.47;100689.00;483477;108;930371;-78
2021/09/13 00:53:46;;;;;;;9.99;9.00;;;;;;;16.87;60.37;100686.01;483833;107;930499;-77
2021/09/13 00:54:50;;;;;;;10.27;9.22;;;;;;;16.87;60.32;100689.56;483985;108;923260;-78
2021/09/13 00:55:55;;;;;;;9.43;8.61;;;;;;;16.86;60.28;100687.92;483936;109;923053;-77
2021/09/13 00:56:59;;;;;;;9.78;8.29;;;;;;;16.84;60.35;100683.74;483931;107;930543;-78
2021/09/13 00:58:03;;;;;;;9.49;8.59;;;;;;;16.82;60.45;100681.23;483793;107;923028;-78
2021/09/13 00:59:06;;;;;;;10.04;8.75;;;;;;;16.80;60.47;100683.42;483805;108;930498;-77
2021/09/13 01:00:13;;;;;;;10.96;9.71;;;;;;;16.79;60.59;100681.75;474063;109;923038;-79
2021/09/13 01:01:16;;;;;;;9.80;8.54;;;;;;;16.78;60.71;100685.59;474522;109;923239;-78
2021/09/13 01:02:20;;;;;;;11.36;8.96;;;;;;;16.79;60.76;100687.27;484128;107;922452;-78
2021/09/13 01:03:23;;;;;;;11.34;9.28;;;;;;;16.81;60.78;100689.77;484098;108;930432;-77
2021/09/13 01:04:27;;;;;;;10.79;9.51;;;;;;;16.81;60.74;100687.02;484086;107;930938;-77
2021/09/13 01:05:31;;;;;;;11.16;8.92;;;;;;;16.80;60.75;100693.61;483965;109;922824;-78
2021/09/13 01:06:35;;;;;;;11.42;9.54;;;;;;;16.78;60.76;100687.51;484186;109;922923;-76
2021/09/13 01:07:39;;;;;;;10.09;9.01;;;;;;;16.77;60.80;100694.93;484243;109;923431;-76
2021/09/13 01:08:43;;;;;;;9.68;8.69;;;;;;;16.76;60.86;100689.70;484247;109;923067;-78
2021/09/13 01:09:47;;;;;;;10.68;9.69;;;;;;;16.73;60.89;100699.28;484136;107;922843;-77
2021/09/13 01:10:54;;;;;;;10.27;9.15;;;;;;;16.73;60.88;100693.77;484024;108;922510;-78
2021/09/13 01:11:58;;;;;;;11.27;10.00;;;;;;;16.72;60.93;100692.10;484128;107;922675;-78
2021/09/13 01:13:01;;;;;;;11.16;9.99;;;;;;;16.71;60.87;100693.19;484211;109;922882;-78
2021/09/13 01:14:05;;;;;;;11.14;9.59;;;;;;;16.71;60.88;100687.67;484239;107;922057;-78
2021/09/13 01:15:09;;;;;;;10.98;9.69;;;;;;;16.70;60.89;100693.46;484757;109;922637;-78
2021/09/13 01:16:15;;;;;;;12.94;10.49;;;;;;;16.69;60.93;100687.11;483544;107;930231;-78
2021/09/13 01:17:18;;;;;;;10.24;9.25;;;;;;;16.68;60.88;100690.95;485545;107;922087;-77
2021/09/13 01:18:22;;;;;;;11.04;9.97;;;;;;;16.66;60.86;100687.60;484906;109;922638;-77
2021/09/13 01:19:25;;;;;;;11.87;10.63;;;;;;;16.64;60.84;100696.14;484199;107;923151;-78
2021/09/13 01:20:29;;;;;;;10.70;9.73;;;;;;;16.58;61.04;100688.84;483894;109;925181;-77
2021/09/13 01:21:35;;;;;;;12.19;10.24;;;;;;;16.58;61.04;100688.84;484145;108;929991;-77
2021/09/13 01:22:41;;;;;;;10.33;9.28;;;;;;;16.57;60.95;100689.93;484047;109;922387;-77
2021/09/13 01:23:44;;;;;;;14.79;8.95;;;;;;;16.55;61.02;100694.00;483973;109;923208;-77
2021/09/13 01:24:49;;;;;;;9.24;8.30;;;;;;;16.54;61.11;100686.86;478665;108;922644;-78
2021/09/13 01:25:53;;;;;;;9.82;8.93;;;;;;;16.52;61.20;100694.52;478747;109;923058;-78
2021/09/13 01:27:02;;;;;;;8.99;8.16;;;;;;;16.48;61.29;100685.94;483668;107;922664;-77
2021/09/13 01:28:05;;;;;;;9.08;8.21;;;;;;;16.45;61.43;100691.94;483445;107;922378;-77
2021/09/13 01:29:09;;;;;;;9.21;8.28;;;;;;;16.42;61.63;100694.36;484164;109;922439;-77
2021/09/13 01:30:12;;;;;;;9.86;8.65;;;;;;;16.42;61.74;100689.70;483831;107;924963;-77
2021/09/13 01:31:16;;;;;;;9.25;8.34;;;;;;;16.39;61.74;100683.84;484096;109;922495;-78
2021/09/13 01:32:21;;;;;;;8.86;8.06;;;;;;;16.39;61.74;100683.84;477801;110;922695;-78
2021/09/13 01:33:29;;;;;;;10.36;8.37;;;;;;;16.34;61.78;100692.84;479052;109;930449;-78
2021/09/13 01:34:33;;;;;;;10.85;8.93;;;;;;;16.30;61.78;100685.34;483931;107;923019;-78
2021/09/13 01:35:37;;;;;;;10.76;9.26;;;;;;;16.25;61.85;100694.36;480073;109;930507;-77
2021/09/13 01:36:41;;;;;;;9.80;8.87;;;;;;;16.21;61.96;100693.17;477071;111;922445;-77
2021/09/13 01:37:46;;;;;;;9.39;8.59;;;;;;;16.16;62.05;100696.67;476286;110;922656;-77
2021/09/13 01:38:50;;;;;;;10.51;9.01;;;;;;;16.12;62.19;100695.50;476192;109;922517;-78
2021/09/13 01:39:53;;;;;;;11.92;8.73;;;;;;;16.09;62.33;100695.18;476070;110;922732;-78
2021/09/13 01:40:59;;;;;;;9.93;8.59;;;;;;;16.05;62.40;100691.23;476782;110;923023;-78
2021/09/13 01:42:03;;;;;;;9.45;8.51;;;;;;;16.00;62.45;100691.98;476028;109;922851;-79
2021/09/13 01:43:07;;;;;;;9.32;8.42;;;;;;;15.98;62.49;100694.17;475663;110;922633;-79
2021/09/13 01:44:15;;;;;;;9.54;8.50;;;;;;;15.96;62.58;100695.48;475667;110;922475;-78
2021/09/13 01:45:19;;;;;;;9.02;7.73;;;;;;;15.93;62.60;100688.58;476179;111;930549;-79
2021/09/13 01:46:24;;;;;;;9.51;8.61;;;;;;;15.91;62.67;100693.48;476635;109;923102;-78
2021/09/13 01:47:28;;;;;;;11.41;8.89;;;;;;;15.89;62.77;100694.80;476286;109;923093;-79
2021/09/13 01:48:32;;;;;;;9.71;8.80;;;;;;;15.87;62.88;100688.72;476215;109;922587;-77
2021/09/13 01:49:35;;;;;;;9.60;8.79;;;;;;;15.86;62.98;100690.64;476963;111;922434;-77
2021/09/13 01:50:40;;;;;;;11.47;9.21;;;;;;;15.86;63.14;100690.64;466505;111;922784;-78
2021/09/13 01:51:44;;;;;;;9.86;8.93;;;;;;;15.89;63.25;100687.38;467417;111;930574;-78
2021/09/13 01:52:48;;;;;;;9.98;8.98;;;;;;;15.93;63.30;100691.33;476808;111;922489;-78
2021/09/13 01:53:51;;;;;;;11.00;8.87;;;;;;;15.97;63.27;100694.41;476374;111;930542;-78
2021/09/13 01:54:55;;;;;;;10.88;9.08;;;;;;;16.01;63.22;100687.32;476445;110;922830;-78
2021/09/13 01:55:58;;;;;;;10.80;8.96;;;;;;;16.04;63.23;100695.09;477061;110;923055;-78
2021/09/13 01:57:02;;;;;;;10.25;9.35;;;;;;;16.08;63.17;100690.75;477467;109;930533;-78
2021/09/13 01:58:07;;;;;;;12.68;9.57;;;;;;;16.11;63.13;100691.08;473432;111;922534;-78
2021/09/13 01:59:10;;;;;;;10.31;8.69;;;;;;;16.15;63.07;100694.99;475937;110;922509;-78
2021/09/13 02:00:14;;;;;;;10.44;9.44;;;;;;;16.19;62.95;100692.60;476298;110;922833;-78
2021/09/13 02:01:19;;;;;;;10.42;9.33;;;;;;;16.22;62.83;100697.59;470177;112;922605;-78
2021/09/13 02:02:23;;;;;;;10.57;9.49;;;;;;;16.24;62.75;100692.69;470678;111;922673;-78
2021/09/13 02:03:28;;;;;;;8.64;7.88;;;;;;;16.27;62.68;100692.17;478192;110;922090;-77
2021/09/13 02:04:31;;;;;;;11.84;9.83;;;;;;;16.27;62.49;100686.67;477521;110;922320;-79
2021/09/13 02:05:35;;;;;;;11.02;9.05;;;;;;;16.28;62.40;100686.42;478078;110;922610;-78
2021/09/13 02:06:40;;;;;;;9.29;8.45;;;;;;;16.28;62.31;100686.42;477369;109;930447;-78
2021/09/13 02:07:43;;;;;;;10.13;8.96;;;;;;;16.27;62.32;100689.42;475807;109;930315;-77
2021/09/13 02:08:47;;;;;;;12.49;9.90;;;;;;;16.25;62.26;100683.36;477110;110;930474;-77
2021/09/13 02:09:53;;;;;;;12.39;9.21;;;;;;;16.24;62.26;100687.19;476280;109;930496;-78
2021/09/13 02:10:58;;;;;;;10.34;9.16;;;;;;;16.21;62.26;100690.41;475229;109;930191;-77
2021/09/13 02:12:01;;;;;;;10.11;9.24;;;;;;;16.20;62.28;100683.27;477426;111;922541;-77
2021/09/13 02:13:06;;;;;;;9.80;8.69;;;;;;;16.18;62.25;100680.76;476716;111;923010;-77
2021/09/13 02:14:10;;;;;;;11.74;8.88;;;;;;;16.16;62.25;100682.91;476091;109;930473;-79
2021/09/13 02:15:14;;;;;;;10.46;8.85;;;;;;;16.13;62.28;100685.34;476659;109;922317;-78
2021/09/13 02:16:19;;;;;;;10.35;9.21;;;;;;;16.11;62.37;100682.83;477025;109;930480;-78
2021/09/13 02:17:23;;;;;;;13.36;9.56;;;;;;;16.07;62.42;100678.91;476066;109;923074;-78
2021/09/13 02:18:26;;;;;;;9.86;8.81;;;;;;;16.07;62.51;100691.83;476973;110;930658;-78
2021/09/13 02:19:30;;;;;;;11.03;9.24;;;;;;;16.06;62.55;100684.66;476526;111;923065;-77
2021/09/13 02:20:35;;;;;;;11.06;9.27;;;;;;;16.07;62.54;100686.33;476198;109;930501;-78
2021/09/13 02:21:39;;;;;;;9.63;8.64;;;;;;;16.08;62.56;100685.25;477088;109;923041;-79
2021/09/13 02:22:43;;;;;;;11.82;9.64;;;;;;;16.07;62.57;100691.83;467075;112;930830;-79
2021/09/13 02:23:48;;;;;;;11.35;8.82;;;;;;;16.06;62.60;100696.50;467129;111;930590;-78
2021/09/13 02:24:51;;;;;;;11.74;9.60;;;;;;;16.06;62.58;100682.74;467140;112;931048;-79
2021/09/13 02:25:55;;;;;;;11.10;9.91;;;;;;;16.05;62.52;100688.48;468030;111;931081;-78
2021/09/13 02:27:02;;;;;;;10.32;9.35;;;;;;;16.03;62.56;100685.17;477089;111;923189;-79
2021/09/13 02:28:05;;;;;;;10.73;9.74;;;;;;;16.01;62.58;100690.07;477858;111;922934;-79
2021/09/13 02:29:09;;;;;;;11.58;9.49;;;;;;;16.00;62.55;100688.39;476881;109;922667;-79
2021/09/13 02:30:13;;;;;;;11.44;9.82;;;;;;;15.97;62.64;100692.49;477336;111;930393;-78
2021/09/13 02:31:17;;;;;;;9.82;8.78;;;;;;;15.95;62.67;100691.89;476452;110;923065;-78
2021/09/13 02:32:20;;;;;;;15.20;9.45;;;;;;;15.95;62.68;100688.30;467989;111;930836;-78
2021/09/13 02:33:24;;;;;;;9.48;8.59;;;;;;;15.94;62.69;100684.72;468572;111;930270;-77
2021/09/13 02:34:27;;;;;;;12.85;9.31;;;;;;;15.91;62.68;100685.23;476366;111;923015;-77
2021/09/13 02:35:31;;;;;;;10.79;9.59;;;;;;;15.90;62.74;100683.55;476688;109;929977;-77
2021/09/13 02:36:34;;;;;;;10.68;9.48;;;;;;;15.87;62.79;100685.97;484299;107;930481;-78
2021/09/13 02:37:39;;;;;;;12.16;9.47;;;;;;;15.81;62.84;100680.39;484023;107;930489;-78
2021/09/13 02:38:44;;;;;;;12.88;9.38;;;;;;;15.75;62.99;100680.53;484016;107;930580;-78
2021/09/13 02:39:48;;;;;;;10.47;9.39;;;;;;;15.69;63.12;100679.60;484261;107;922538;-78
2021/09/13 02:40:53;;;;;;;14.20;8.89;;;;;;;15.65;63.28;100680.34;484226;108;922567;-78
2021/09/13 02:41:57;;;;;;;9.82;8.81;;;;;;;15.60;63.45;100683.00;483327;108;922919;-78
2021/09/13 02:43:00;;;;;;;11.65;8.72;;;;;;;15.57;63.55;100680.72;474344;111;922521;-78
2021/09/13 02:44:05;;;;;;;9.59;8.63;;;;;;;15.52;63.68;100673.22;474534;109;923451;-77
2021/09/13 02:45:09;;;;;;;10.44;8.02;;;;;;;15.49;63.79;100681.09;474495;110;923201;-78
2021/09/13 02:46:18;;;;;;;9.18;8.35;;;;;;;15.45;63.92;100684.31;470404;111;923541;-79
2021/09/13 02:47:22;;;;;;;10.10;8.84;;;;;;;15.43;64.01;100677.41;479125;108;923150;-79
2021/09/13 02:48:25;;;;;;;13.34;8.95;;;;;;;15.42;64.22;100682.06;484241;108;922420;-78
2021/09/13 02:49:29;;;;;;;13.14;8.62;;;;;;;15.44;64.27;100685.39;484338;109;922557;-78
2021/09/13 02:50:33;;;;;;;9.98;9.04;;;;;;;15.46;64.30;100682.41;484622;108;922011;-76
2021/09/13 02:51:38;;;;;;;10.69;8.21;;;;;;;15.46;64.33;100679.66;475732;109;922587;-78
2021/09/13 02:52:42;;;;;;;9.47;8.58;;;;;;;15.48;64.33;100684.92;475194;110;922999;-78
2021/09/13 02:53:46;;;;;;;9.94;9.08;;;;;;;15.49;64.29;100678.34;477624;109;922812;-78
2021/09/13 02:54:49;;;;;;;13.41;9.53;;;;;;;15.50;64.29;100683.58;485530;108;922722;-78
2021/09/13 02:55:53;;;;;;;31.52;9.83;;;;;;;15.51;64.26;100685.25;474623;109;922830;-78
2021/09/13 02:56:58;;;;;;;13.24;9.45;;;;;;;15.53;64.16;100682.30;475100;109;922989;-77
2021/09/13 02:58:01;;;;;;;13.90;10.22;;;;;;;15.52;64.00;100680.63;484595;109;922741;-78
2021/09/13 02:59:06;;;;;;;11.35;10.16;;;;;;;15.48;63.90;100685.75;474284;110;922441;-80
2021/09/13 03:00:10;;;;;;;11.05;9.87;;;;;;;15.43;63.95;100689.23;473763;109;922911;-77
2021/09/13 03:01:16;;;;;;;11.84;9.81;;;;;;;15.39;63.99;100689.95;465044;112;922913;-78
2021/09/13 03:02:20;;;;;;;12.59;9.83;;;;;;;15.35;64.04;100699.77;483379;107;922419;-78
2021/09/13 03:03:24;;;;;;;10.91;8.96;;;;;;;15.31;64.14;100691.19;484241;107;922776;-78
2021/09/13 03:04:28;;;;;;;11.28;9.85;;;;;;;15.29;64.30;100697.98;484188;108;922967;-79
2021/09/13 03:05:31;;;;;;;12.99;9.98;;;;;;;15.28;64.32;100693.56;484312;109;922880;-78
2021/09/13 03:06:37;;;;;;;12.21;9.87;;;;;;;15.28;64.37;100699.05;483755;108;930267;-77
2021/09/13 03:07:41;;;;;;;16.79;10.14;;;;;;;15.28;64.45;100699.05;473938;110;922545;-77
2021/09/13 03:08:44;;;;;;;14.24;9.63;;;;;;;15.28;64.49;100699.05;474799;109;922433;-78
2021/09/13 03:09:48;;;;;;;10.38;9.32;;;;;;;15.29;64.57;100697.98;483771;109;922546;-77
2021/09/13 03:10:52;;;;;;;12.90;9.66;;;;;;;15.31;64.55;100691.19;483799;108;922651;-77
2021/09/13 03:11:55;;;;;;;15.36;10.02;;;;;;;15.33;64.53;100701.91;484173;108;923044;-78
2021/09/13 03:13:00;;;;;;;10.82;9.74;;;;;;;15.32;64.44;100695.61;478420;109;930439;-77
2021/09/13 03:14:03;;;;;;;10.23;8.87;;;;;;;15.31;64.46;100701.34;478600;108;923004;-77
2021/09/13 03:15:09;;;;;;;11.29;9.79;;;;;;;15.30;64.56;100699.66;484223;107;922934;-79
2021/09/13 03:16:12;;;;;;;11.11;10.02;;;;;;;15.31;64.65;100696.67;484055;108;930485;-77
2021/09/13 03:17:16;;;;;;;15.48;9.73;;;;;;;15.33;64.63;100702.74;483864;107;923264;-77
2021/09/13 03:18:20;;;;;;;11.99;9.92;;;;;;;15.37;64.66;100703.95;484036;107;923545;-80
2021/09/13 03:19:24;;;;;;;11.55;10.41;;;;;;;15.39;64.71;100704.52;484295;109;930281;-79
2021/09/13 03:20:28;;;;;;;11.49;10.02;;;;;;;15.43;64.66;100707.64;484050;109;930246;-78
2021/09/13 03:21:32;;;;;;;12.23;9.33;;;;;;;15.47;64.65;100694.23;484110;108;923048;-78
2021/09/13 03:22:35;;;;;;;18.76;9.78;;;;;;;15.50;64.58;100704.72;474167;110;930524;-79
2021/09/13 03:23:39;;;;;;;13.15;9.66;;;;;;;15.52;64.51;100708.10;469828;111;930435;-78
2021/09/13 03:24:43;;;;;;;11.56;10.22;;;;;;;15.52;64.46;100702.61;462870;113;922504;-78
2021/09/13 03:25:47;;;;;;;15.08;9.62;;;;;;;15.53;64.35;100709.78;470487;109;930776;-78
2021/09/13 03:26:51;;;;;;;15.47;10.75;;;;;;;15.51;64.31;100707.23;484100;107;922834;-77
2021/09/13 03:27:55;;;;;;;14.47;9.71;;;;;;;15.49;64.30;100705.83;483722;108;922516;-80
2021/09/13 03:29:00;;;;;;;14.47;10.49;;;;;;;15.48;64.31;100706.90;483970;107;930286;-78
2021/09/13 03:30:06;;;;;;;12.79;9.98;;;;;;;15.47;64.39;100705.23;484431;107;922444;-78
2021/09/13 03:31:10;;;;;;;19.89;10.30;;;;;;;15.45;64.33;100703.55;482778;107;922612;-79
2021/09/13 03:32:15;;;;;;;13.00;10.15;;;;;;;15.41;64.31;100707.87;483920;107;922500;-78
2021/09/13 03:33:19;;;;;;;13.06;9.59;;;;;;;15.37;64.35;100706.70;483817;108;922693;-77
2021/09/13 03:34:22;;;;;;;12.66;8.79;;;;;;;15.34;64.37;100703.58;483926;107;930354;-77
2021/09/13 03:35:26;;;;;;;13.01;8.86;;;;;;;15.29;64.28;100701.56;484184;109;930481;-79
2021/09/13 03:36:31;;;;;;;17.26;9.19;;;;;;;15.24;64.27;100708.86;482058;108;930534;-78
2021/09/13 03:37:36;;;;;;;11.67;9.54;;;;;;;15.22;64.34;100708.27;480812;108;922820;-78
2021/09/13 03:38:41;;;;;;;18.66;10.30;;;;;;;15.18;64.44;100698.84;473018;110;930818;-78
2021/09/13 03:39:47;;;;;;;19.73;10.62;;;;;;;15.15;64.66;100700.18;471432;110;922342;-77
2021/09/13 03:40:52;;;;;;;23.77;10.59;;;;;;;15.13;64.85;100701.48;480318;108;923235;-77
2021/09/13 03:41:55;;;;;;;17.29;10.33;;;;;;;15.11;64.95;100701.72;474017;110;922385;-77
2021/09/13 03:42:59;;;;;;;16.34;9.95;;;;;;;15.09;65.00;100705.80;473928;110;930265;-78
2021/09/13 03:44:05;;;;;;;15.87;9.90;;;;;;;15.08;65.04;100704.95;479943;108;922610;-79
2021/09/13 03:45:10;;;;;;;16.61;10.51;;;;;;;15.09;65.07;100705.80;479991;108;922959;-79
2021/09/13 03:46:17;;;;;;;16.22;10.39;;;;;;;15.09;65.09;100706.64;452087;117;930762;-78
2021/09/13 03:47:31;;;;;;;12.39;9.24;;;;;;;15.08;65.07;100706.88;471816;108;922574;-78
2021/09/13 03:48:35;;;;;;;14.15;9.45;;;;;;;15.05;64.90;100710.92;458560;114;922511;-80
2021/09/13 03:49:39;;;;;;;19.44;9.68;;;;;;;15.04;64.93;100714.77;461696;114;923253;-78
2021/09/13 03:50:44;;;;;;;19.27;9.83;;;;;;;15.03;65.02;100713.09;469467;111;930283;-80
2021/09/13 03:51:48;;;;;;;14.69;9.39;;;;;;;15.06;65.13;100714.50;459542;113;923156;-78
2021/09/13 03:52:53;;;;;;;12.25;9.90;;;;;;;15.08;65.10;100713.20;458197;113;930290;-78
2021/09/13 03:53:56;;;;;;;17.00;9.10;;;;;;;15.10;65.09;100716.55;460312;113;930387;-79
2021/09/13 03:54:59;;;;;;;107.63;14.79;;;;;;;15.15;65.18;100713.91;459179;115;930617;-76
2021/09/13 03:56:03;;;;;;;185.27;19.70;;;;;;;15.15;65.18;100713.91;459303;113;930099;-77
2021/09/13 03:57:08;;;;;;;68.11;14.04;;;;;;;15.16;65.05;100714.75;466199;111;930336;-78
2021/09/13 03:58:12;;;;;;;49.02;11.38;;;;;;;15.18;65.07;100713.41;463008;112;922496;-79
2021/09/13 03:59:16;;;;;;;24.41;11.66;;;;;;;15.20;65.06;100715.93;463068;113;930534;-81
2021/09/13 04:00:21;;;;;;;19.14;10.94;;;;;;;15.20;64.99;100711.27;461236;113;923262;-77
2021/09/13 04:01:24;;;;;;;16.70;10.15;;;;;;;15.20;64.96;100716.77;458589;113;922476;-76
2021/09/13 04:02:29;;;;;;;15.24;9.24;;;;;;;15.19;64.88;100726.08;470215;110;923178;-78
2021/09/13 04:03:46;;;;;;;25.05;9.56;;;;;;;15.18;64.92;100727.15;469366;111;922705;-78
2021/09/13 04:04:51;;;;;;;25.52;9.93;;;;;;;15.20;65.02;100724.17;459866;113;923528;-77
2021/09/13 04:05:57;;;;;;;19.85;9.47;;;;;;;15.21;65.04;100726.69;469593;112;922618;-79
2021/09/13 04:07:26;;;;;;;24.07;9.38;;;;;;;15.24;65.07;100725.34;468021;111;922681;-78
2021/09/13 04:12:12;;;;;;;17.07;10.37;;;;;;;15.32;64.96;100722.23;472407;110;922513;-76
2021/09/13 04:12:37;;;;;;;16.94;9.35;;;;;;;15.32;64.78;100720.33;463589;111;923281;-78
2021/09/13 04:13:55;;;;;;;20.41;9.53;;;;;;;15.30;64.72;100725.22;467555;111;923041;-78
2021/09/13 04:15:01;;;;;;;22.87;9.04;;;;;;;15.30;64.78;100724.38;469817;112;922877;-78
2021/09/13 04:16:23;;;;;;;16.78;8.31;;;;;;;15.33;64.82;100723.88;470595;110;922620;-77
2021/09/13 04:17:42;;;;;;;11.84;7.89;;;;;;;15.36;64.79;100727.00;446024;116;923253;-79
2021/09/13 04:18:47;;;;;;;16.88;8.95;;;;;;;15.41;64.74;100718.86;461787;108;923112;-79
2021/09/13 04:20:09;;;;;;;14.32;9.69;;;;;;;15.48;64.55;100723.39;475949;109;922571;-79
2021/09/13 04:21:17;;;;;;;12.47;9.11;;;;;;;15.55;64.30;100724.93;446944;117;922852;-79
2021/09/13 04:22:25;;;;;;;16.99;9.68;;;;;;;15.60;63.99;100722.28;465464;110;923686;-77
2021/09/13 04:23:30;;;;;;;17.27;8.94;;;;;;;15.65;63.74;100724.32;477216;108;923157;-77
2021/09/13 04:24:42;;;;;;;19.96;9.77;;;;;;;15.69;63.56;100722.75;471423;110;922958;-79
2021/09/13 04:26:02;;;;;;;12.31;8.46;;;;;;;15.72;63.47;100724.99;472967;110;922919;-78
2021/09/13 04:27:16;;;;;;;17.74;8.76;;;;;;;15.79;63.30;100720.19;474515;108;923050;-80
2021/09/13 04:28:27;;;;;;;20.46;9.28;;;;;;;15.83;63.09;100727.70;481336;108;922848;-78
2021/09/13 04:29:33;;;;;;;17.84;9.93;;;;;;;15.87;62.95;100722.56;481633;108;922329;-79
2021/09/13 04:30:57;;;;;;;23.21;9.03;;;;;;;15.92;62.80;100719.91;478820;108;922464;-79
2021/09/13 04:32:08;;;;;;;27.10;9.86;;;;;;;15.97;62.63;100722.74;481938;108;923010;-77
2021/09/13 04:33:16;;;;;;;38.55;10.38;;;;;;;15.99;62.51;100720.56;464142;112;922881;-77
2021/09/13 04:34:25;;;;;;;30.59;10.84;;;;;;;16.04;62.47;100722.59;475274;108;922993;-77
2021/09/13 04:35:46;;;;;;;27.47;9.41;;;;;;;16.06;62.52;100724.00;480883;108;923346;-76
2021/09/13 04:37:08;;;;;;;56.18;12.12;;;;;;;16.10;62.38;100727.92;481338;108;923749;-79
2021/09/13 04:38:32;;;;;;;21.26;9.41;;;;;;;16.10;62.35;100732.58;461247;114;923103;-77
2021/09/13 04:39:40;;;;;;;35.43;10.67;;;;;;;16.07;62.27;100727.59;460356;113;923371;-78
2021/09/13 04:41:03;;;;;;;22.83;9.58;;;;;;;16.05;62.35;100718.73;463765;114;923107;-77
2021/09/13 04:42:17;;;;;;;28.77;9.34;;;;;;;16.05;62.51;100724.23;447735;114;923094;-78
2021/09/13 04:43:37;;;;;;;23.15;9.67;;;;;;;16.06;62.55;100737.75;463723;112;923148;-79
2021/09/13 04:44:59;;;;;;;21.47;9.56;;;;;;;16.08;62.62;100729.27;479408;108;922916;-78
2021/09/13 04:46:14;;;;;;;20.75;9.53;;;;;;;16.08;62.66;100735.60;479562;108;922419;-78
2021/09/13 04:47:38;;;;;;;18.09;8.87;;;;;;;16.12;62.70;100736.77;481410;108;922869;-77
2021/09/13 04:48:46;;;;;;;48.39;9.69;;;;;;;16.15;62.60;100736.26;477928;108;923097;-78
2021/09/13 04:50:01;;;;;;;23.02;10.47;;;;;;;16.18;62.50;100740.45;477848;110;922422;-78
2021/09/13 04:51:13;;;;;;;21.00;9.34;;;;;;;16.20;62.55;100736.38;472446;110;923398;-79
2021/09/13 04:52:21;;;;;;;15.56;8.96;;;;;;;16.24;62.47;100728.45;480964;108;923168;-78
2021/09/13 04:53:26;;;;;;;14.41;7.99;;;;;;;16.27;62.26;100737.03;480701;110;922888;-78
2021/09/13 04:54:30;;;;;;;17.19;8.03;;;;;;;16.32;62.07;100729.97;483778;109;922964;-80
2021/09/13 04:55:35;;;;;;;12.41;8.23;;;;;;;16.35;61.88;100730.30;483040;109;930398;-79
2021/09/13 04:56:39;;;;;;;13.43;7.52;;;;;;;16.38;61.68;100735.29;481402;108;922283;-79
2021/09/13 04:57:43;;;;;;;16.09;7.96;;;;;;;16.43;61.51;100734.56;480656;108;922392;-78
2021/09/13 04:58:46;;;;;;;12.26;8.80;;;;;;;16.46;61.41;100734.05;481231;108;922916;-79
2021/09/13 04:59:50;;;;;;;15.84;8.66;;;;;;;16.50;61.26;100735.22;472637;110;922988;-78
2021/09/13 05:00:55;;;;;;;15.31;7.60;;;;;;;16.53;61.11;100737.48;473294;110;922815;-78